Time;durP1;ratioP1;P1;durP2;ratioP2;P2;SDS_P1;SDS_P2;PMS_P1;PMS_P2;Temp;Humidity;BMP_temperature;BMP_pressure;BME280_temperature;BME280_humidity;BME280_pressure;Samples;Min_cycle;Max_cycle;Signal;HPM_P1;HPM_P2
2023/02/21 02:15:17;;;;;;;;;48.50;40.00;;;;;9.67;63.30;101783.75;4914854;28;45415;-83
2023/02/21 02:18:14;;;;;;;;;44.25;39.00;;;;;9.48;62.85;101756.44;4911928;28;46401;-83
2023/02/21 02:21:13;;;;;;;;;44.00;37.25;;;;;9.63;63.25;101785.56;4918800;28;45282;-83
2023/02/21 02:24:09;;;;;;;;;41.25;35.00;;;;;9.57;63.25;101780.34;4915833;28;45473;-83
2023/02/21 02:26:40;;;;;;;;;38.00;35.00;;;;;9.56;63.30;101775.91;4918923;28;45403;-83
2023/02/21 02:29:42;;;;;;;;;43.25;37.00;;;;;9.44;63.28;101757.41;4909833;28;45418;-83
2023/02/21 02:32:30;;;;;;;;;40.75;35.25;;;;;9.46;63.45;101772.44;4910750;28;45265;-83
2023/02/21 02:35:29;;;;;;;;;38.50;35.50;;;;;9.46;63.50;101768.91;4933800;28;45471;-83
2023/02/21 02:37:58;;;;;;;;;32.75;28.25;;;;;9.46;63.31;101768.91;4911716;28;45509;-83
2023/02/21 02:40:50;;;;;;;;;40.50;36.25;;;;;9.33;63.34;101740.63;4914848;28;47959;-82
2023/02/21 02:43:21;;;;;;;;;35.50;30.00;;;;;9.44;63.20;101763.59;4915230;28;45338;-83
2023/02/21 02:45:52;;;;;;;;;38.75;34.25;;;;;9.39;63.41;101748.56;4903892;28;45274;-83
2023/02/21 02:48:34;;;;;;;;;38.50;34.75;;;;;9.28;63.09;101735.34;4909800;28;46297;-83
2023/02/21 02:51:05;;;;;;;;;34.50;30.50;;;;;9.29;63.28;101734.47;4910971;28;48603;-83
2023/02/21 02:53:30;;;;;;;;;36.00;33.25;;;;;9.36;63.29;101744.16;4911640;28;46202;-83
2023/02/21 02:55:59;;;;;;;;;34.75;33.00;;;;;9.27;62.80;101747.81;4916571;28;45257;-82
2023/02/21 02:58:29;;;;;;;;;28.00;27.00;;;;;9.18;63.14;101725.69;4911736;28;45368;-82
2023/02/21 03:01:45;;;;;;;;;35.50;33.00;;;;;9.32;63.38;101749.50;4916528;28;46138;-82
2023/02/21 03:04:29;;;;;;;;;39.00;36.25;;;;;9.30;63.54;101746.00;4916185;28;45275;-82
2023/02/21 03:07:32;;;;;;;;;38.50;35.00;;;;;9.28;63.46;101740.69;4918299;28;45269;-82
2023/02/21 03:10:19;;;;;;;;;33.75;33.00;;;;;9.27;63.59;101738.91;4931466;28;45769;-83
2023/02/21 03:12:57;;;;;;;;;40.50;35.75;;;;;9.23;63.49;101729.19;4908847;28;48148;-82
2023/02/21 03:15:51;;;;;;;;;40.75;32.25;;;;;9.24;63.35;101730.97;4919031;28;45285;-83
2023/02/21 03:18:16;;;;;;;;;41.25;32.75;;;;;9.23;63.34;101724.75;4914741;28;45351;-83
2023/02/21 03:20:45;;;;;;;;;35.00;33.75;;;;;9.14;63.72;101719.53;4915624;28;45547;-83
2023/02/21 03:23:14;;;;;;;;;37.75;35.25;;;;;9.12;63.25;101717.75;4914882;28;45440;-82
2023/02/21 03:25:41;;;;;;;;;33.50;33.50;;;;;9.11;63.44;101716.91;4908226;28;45456;-83
2023/02/21 03:28:07;;;;;;;;;43.25;36.00;;;;;9.16;63.20;101732.84;4908893;28;45296;-83
2023/02/21 03:30:33;;;;;;;;;36.75;35.25;;;;;9.04;63.67;101712.53;4913996;28;45309;-83
2023/02/21 03:33:01;;;;;;;;;40.50;35.75;;;;;9.08;63.78;101714.25;4905966;28;45484;-83
2023/02/21 03:35:29;;;;;;;;;41.75;36.50;;;;;9.13;63.71;101727.53;4922007;28;45678;-82
2023/02/21 03:37:56;;;;;;;;;41.00;38.00;;;;;9.12;63.67;101718.66;4911458;28;45420;-83
2023/02/21 03:40:25;;;;;;;;;44.00;37.75;;;;;8.99;63.83;101701.94;4919730;28;45390;-83
2023/02/21 03:42:52;;;;;;;;;41.25;36.50;;;;;8.98;63.91;101701.94;4906721;28;46154;-82
2023/02/21 03:45:18;;;;;;;;;49.00;38.00;;;;;9.05;63.85;101711.63;4902365;28;45373;-83
2023/02/21 03:47:43;;;;;;;;;41.25;38.00;;;;;9.02;63.90;101703.66;4906598;28;45441;-83
2023/02/21 03:50:08;;;;;;;;;43.25;38.25;;;;;9.05;63.84;101715.19;4905915;28;45441;-83
2023/02/21 03:52:34;;;;;;;;;47.25;38.75;;;;;8.93;64.03;101694.00;4901678;29;47339;-83
2023/02/21 03:54:59;;;;;;;;;37.00;34.75;;;;;8.99;63.92;101698.41;4910407;28;45555;-83
2023/02/21 03:57:25;;;;;;;;;47.50;38.75;;;;;8.92;63.59;101684.25;4919665;28;45195;-82
2023/02/21 03:59:51;;;;;;;;;40.75;31.50;;;;;9.02;64.17;101698.34;4916498;28;46191;-82
2023/02/21 04:02:17;;;;;;;;;43.75;38.50;;;;;8.93;63.96;101688.66;4915539;28;48271;-83
2023/02/21 04:04:42;;;;;;;;;42.50;38.25;;;;;8.87;63.69;101680.72;4910484;28;45407;-83
2023/02/21 04:07:09;;;;;;;;;40.75;37.00;;;;;8.93;63.71;101687.78;4916997;28;45371;-83
2023/02/21 04:09:34;;;;;;;;;35.25;32.75;;;;;8.94;63.80;101689.53;4927550;28;45772;-83
2023/02/21 04:12:00;;;;;;;;;36.25;31.75;;;;;8.74;63.72;101664.03;4913284;28;46186;-83
2023/02/21 04:14:25;;;;;;;;;44.50;37.25;;;;;8.89;63.68;101692.28;4907961;28;45357;-83
2023/02/21 04:16:50;;;;;;;;;39.75;34.25;;;;;8.89;64.12;101690.47;4916286;28;45382;-83
2023/02/21 04:19:16;;;;;;;;;42.25;36.50;;;;;8.77;64.11;101671.06;4902439;29;45522;-82
2023/02/21 04:21:41;;;;;;;;;44.00;36.50;;;;;8.90;64.29;101696.69;4915581;28;45366;-82
2023/02/21 04:24:07;;;;;;;;;41.75;37.75;;;;;8.79;63.75;101688.81;4908473;28;45805;-82
2023/02/21 04:26:33;;;;;;;;;35.00;32.00;;;;;8.85;64.17;101698.50;4905765;28;45342;-82
2023/02/21 04:28:59;;;;;;;;;44.75;37.50;;;;;8.80;64.08;101693.22;4909201;28;45218;-82
2023/02/21 04:31:24;;;;;;;;;50.50;40.25;;;;;8.71;64.01;101682.69;4903485;28;45458;-83
2023/02/21 04:33:50;;;;;;;;;54.75;43.50;;;;;8.83;64.44;101697.66;4919669;28;45442;-82
2023/02/21 04:36:15;;;;;;;;;49.25;42.00;;;;;8.74;64.28;101682.66;4908104;28;45301;-82
2023/02/21 04:38:41;;;;;;;;;55.00;46.00;;;;;8.78;64.01;101684.38;4919006;28;45487;-83
2023/02/21 04:41:06;;;;;;;;;59.00;47.25;;;;;8.76;64.30;101687.97;4920737;28;45488;-82
2023/02/21 04:43:32;;;;;;;;;57.50;45.75;;;;;8.81;64.32;101697.66;4911966;28;45349;-83
2023/02/21 04:45:59;;;;;;;;;56.25;44.25;;;;;8.63;64.17;101674.75;4908165;28;45326;-83
2023/02/21 04:48:24;;;;;;;;;59.75;47.00;;;;;8.71;64.26;101682.69;4902129;28;45267;-83
2023/02/21 04:50:50;;;;;;;;;52.25;43.25;;;;;8.61;64.27;101673.91;4914240;28;46986;-82
2023/02/21 04:53:15;;;;;;;;;52.25;44.00;;;;;8.80;64.48;101700.34;4920112;28;45677;-82
2023/02/21 04:55:41;;;;;;;;;54.00;44.50;;;;;8.79;64.35;101706.59;4918539;28;45340;-82
2023/02/21 04:58:06;;;;;;;;;55.25;42.25;;;;;8.78;64.26;101697.69;4912355;28;45426;-82
2023/02/21 05:00:31;;;;;;;;;52.50;43.50;;;;;8.79;64.19;101702.13;4922023;28;47721;-82
2023/02/21 05:02:57;;;;;;;;;46.25;37.50;;;;;8.71;64.40;101688.88;4910357;28;45345;-82
2023/02/21 05:05:22;;;;;;;;;50.50;42.25;;;;;8.66;64.38;101684.50;4910683;28;45417;-82
2023/02/21 05:07:47;;;;;;;;;49.25;39.50;;;;;8.76;64.48;101696.81;4923028;28;45397;-82
2023/02/21 05:10:15;;;;;;;;;38.75;34.50;;;;;8.63;64.61;101682.75;4911695;28;45271;-82
2023/02/21 05:12:41;;;;;;;;;53.25;42.25;;;;;8.60;64.35;101684.56;4904749;28;45207;-82
2023/02/21 05:15:07;;;;;;;;;53.75;43.75;;;;;8.65;64.48;101690.72;4906677;28;45429;-82
2023/02/21 05:17:33;;;;;;;;;50.25;42.25;;;;;8.61;64.44;101683.66;4905208;28;45499;-82
2023/02/21 05:19:58;;;;;;;;;46.75;39.25;;;;;8.75;64.48;101704.81;4920380;28;47529;-82
2023/02/21 05:22:23;;;;;;;;;49.25;40.50;;;;;8.63;64.35;101695.19;4921108;28;45337;-82
2023/02/21 05:24:49;;;;;;;;;49.75;40.00;;;;;8.60;64.17;101688.09;4914883;28;45403;-82
2023/02/21 05:27:17;;;;;;;;;52.00;40.50;;;;;8.71;64.18;101706.63;4917007;28;45530;-82
2023/02/21 05:29:52;;;;;;;;;42.75;38.75;;;;;8.67;64.27;101700.47;4917716;28;47340;-82
2023/02/21 05:32:19;;;;;;;;;49.50;40.00;;;;;8.66;64.24;101697.81;4918228;28;45736;-82
2023/02/21 05:34:46;;;;;;;;;43.50;38.00;;;;;8.59;64.49;101689.00;4919446;28;45252;-82
2023/02/21 05:37:15;;;;;;;;;42.25;36.25;;;;;8.52;64.31;101680.19;4906140;28;45288;-82
2023/02/21 05:39:41;;;;;;;;;50.75;42.25;;;;;8.61;64.03;101692.53;4913722;28;45422;-82
2023/02/21 05:42:06;;;;;;;;;44.00;39.75;;;;;8.50;64.29;101673.09;4916518;28;45783;-83
2023/02/21 05:44:32;;;;;;;;;54.00;41.75;;;;;8.53;64.02;101675.75;4917980;28;45525;-83
2023/02/21 05:46:57;;;;;;;;;50.25;43.25;;;;;8.37;64.43;101643.06;4903571;29;45239;-83
2023/02/21 05:49:23;;;;;;;;;50.50;42.50;;;;;8.51;64.18;101664.25;4904235;28;45310;-83
2023/02/21 05:51:48;;;;;;;;;51.25;39.50;;;;;8.56;64.47;101672.19;4912936;28;45780;-83
2023/02/21 05:54:17;;;;;;;;;54.00;44.25;;;;;8.57;64.28;101673.94;4922579;28;45305;-83
2023/02/21 05:56:45;;;;;;;;;53.75;43.50;;;;;8.55;64.30;101668.63;4911155;28;45585;-82
2023/02/21 05:59:11;;;;;;;;;54.00;44.25;;;;;8.44;64.55;101650.09;4907421;28;46734;-83
2023/02/21 06:01:38;;;;;;;;;54.75;45.25;;;;;8.52;64.39;101666.00;4927355;28;45798;-83
2023/02/21 06:04:06;;;;;;;;;54.00;46.50;;;;;8.51;64.40;101658.91;4914580;28;45847;-83
2023/02/21 06:06:32;;;;;;;;;58.00;47.00;;;;;8.40;64.50;101650.09;4910953;28;45459;-83
2023/02/21 06:08:57;;;;;;;;;56.75;46.50;;;;;8.34;64.87;101640.41;4905592;28;45440;-83
2023/02/21 06:11:27;;;;;;;;;54.25;44.00;;;;;8.38;64.73;101644.78;4904299;28;45330;-82
2023/02/21 06:13:53;;;;;;;;;58.75;47.00;;;;;8.49;64.70;101666.03;4908388;28;45369;-83
2023/02/21 06:16:20;;;;;;;;;65.25;50.75;;;;;8.50;64.78;101654.47;4905669;28;45440;-82
2023/02/21 06:18:49;;;;;;;;;58.00;48.50;;;;;8.34;64.87;101637.75;4904007;28;45263;-83
2023/02/21 06:21:14;;;;;;;;;58.25;47.75;;;;;8.47;64.99;101658.06;4903094;28;45321;-83
2023/02/21 06:23:40;;;;;;;;;62.50;53.00;;;;;8.36;64.98;101633.28;4917149;28;45413;-83
2023/02/21 06:26:05;;;;;;;;;58.00;47.50;;;;;8.39;64.77;101643.91;4922974;28;45289;-83
2023/02/21 06:28:31;;;;;;;;;60.75;50.00;;;;;8.35;65.16;101635.09;4910738;28;45455;-83
2023/02/21 06:30:56;;;;;;;;;62.25;49.00;;;;;8.39;65.14;101627.06;4906022;28;45416;-83
2023/02/21 06:33:23;;;;;;;;;60.50;49.00;;;;;8.48;65.19;101638.53;4919443;28;45830;-83
2023/02/21 06:35:48;;;;;;;;;64.75;51.75;;;;;8.38;65.31;101620.84;4921748;28;45492;-83
2023/02/21 06:38:14;;;;;;;;;56.50;45.75;;;;;8.40;65.38;101619.03;4921532;28;47183;-83
2023/02/21 06:40:39;;;;;;;;;63.00;51.25;;;;;8.44;65.07;101622.63;4922861;28;45278;-83
2023/02/21 06:43:04;;;;;;;;;64.75;52.25;;;;;8.40;65.12;101619.03;4905153;28;45529;-82
2023/02/21 06:45:30;;;;;;;;;63.00;51.75;;;;;8.30;65.47;101598.75;4908245;28;46175;-83
2023/02/21 06:47:55;;;;;;;;;67.00;51.50;;;;;8.41;65.23;101619.97;4921388;28;45552;-83
2023/02/21 06:50:20;;;;;;;;;61.00;49.50;;;;;8.45;65.27;101625.28;4922097;28;45293;-79
2023/02/21 06:52:46;;;;;;;;;65.00;52.25;;;;;8.46;65.34;101627.03;4912465;28;45429;-83
2023/02/21 06:55:11;;;;;;;;;62.00;52.75;;;;;8.35;65.29;101607.56;4903279;28;45343;-83
2023/02/21 06:57:36;;;;;;;;;63.50;52.00;;;;;8.44;65.38;101614.63;4910758;28;45162;-83
2023/02/21 07:00:04;;;;;;;;;66.00;52.75;;;;;8.43;65.37;101619.06;4916960;28;45335;-83
2023/02/21 07:02:29;;;;;;;;;67.75;53.00;;;;;8.39;65.26;101601.34;4920906;28;45334;-83
2023/02/21 07:04:54;;;;;;;;;66.00;51.00;;;;;8.34;65.04;101603.16;4921051;28;45440;-83
2023/02/21 07:07:22;;;;;;;;;68.50;54.25;;;;;8.40;65.12;101611.06;4903428;28;47984;-83
2023/02/21 07:09:48;;;;;;;;;64.75;53.25;;;;;8.38;65.55;101604.88;4912405;28;45326;-83
2023/02/21 07:12:13;;;;;;;;;62.75;51.50;;;;;8.21;65.38;101577.56;4906355;28;45222;-82
2023/02/21 07:14:41;;;;;;;;;61.00;51.50;;;;;8.42;65.78;101611.97;4916693;28;45401;-83
2023/02/21 07:17:06;;;;;;;;;66.25;53.75;;;;;8.37;65.45;101604.91;4915427;28;46065;-82
2023/02/21 07:19:31;;;;;;;;;62.75;49.50;;;;;8.46;65.37;101629.69;4920940;28;45461;-83
2023/02/21 07:21:57;;;;;;;;;64.75;52.75;;;;;8.45;65.16;101624.38;4918446;28;45571;-82
2023/02/21 07:24:22;;;;;;;;;61.50;51.50;;;;;8.46;65.99;101628.81;4913809;28;45626;-82
2023/02/21 07:26:48;;;;;;;;;59.75;48.25;;;;;8.37;65.73;101603.16;4913049;28;45483;-84
2023/02/21 07:29:13;;;;;;;;;61.50;48.50;;;;;8.37;65.72;101599.56;4915684;28;45289;-84
2023/02/21 07:31:38;;;;;;;;;61.25;49.75;;;;;8.48;65.61;101624.34;4915994;28;45502;-84
2023/02/21 07:34:04;;;;;;;;;55.00;45.50;;;;;8.46;65.64;101615.50;4923826;28;45345;-85
2023/02/21 07:36:30;;;;;;;;;66.00;53.25;;;;;8.50;65.37;101625.19;4918746;28;45622;-85
2023/02/21 07:38:55;;;;;;;;;58.00;49.25;;;;;8.38;65.75;101601.34;4911829;28;45414;-84
2023/02/21 07:41:21;;;;;;;;;58.50;46.75;;;;;8.49;65.30;101612.81;4917020;28;45254;-84
2023/02/21 07:43:46;;;;;;;;;59.50;48.75;;;;;8.46;65.53;101607.53;4915438;28;45360;-84
2023/02/21 07:46:17;;;;;;;;;60.75;47.25;;;;;8.52;65.85;101611.00;4913655;28;47284;-84
2023/02/21 07:48:42;;;;;;;;;68.00;51.50;;;;;8.50;65.35;101606.56;4912055;28;45894;-84
2023/02/21 07:51:09;;;;;;;;;58.50;49.75;;;;;8.57;65.65;101615.38;4913223;28;45366;-85
2023/02/21 07:53:35;;;;;;;;;57.25;46.25;;;;;8.61;65.60;101626.00;4915452;28;45647;-81
2023/02/21 07:56:02;;;;;;;;;57.50;48.00;;;;;8.52;65.54;101605.69;4911170;28;46724;-82
2023/02/21 07:58:27;;;;;;;;;63.00;50.50;;;;;8.64;65.59;101617.09;4916311;28;45812;-82
2023/02/21 08:00:54;;;;;;;;;69.50;54.50;;;;;8.62;65.58;101611.78;4918878;28;45570;-81
2023/02/21 08:03:19;;;;;;;;;70.00;54.50;;;;;8.48;65.55;101584.44;4913498;28;45419;-82
2023/02/21 08:05:45;;;;;;;;;65.25;51.50;;;;;8.42;65.62;101574.72;4916165;28;47187;-82
2023/02/21 08:08:11;;;;;;;;;64.25;52.75;;;;;8.58;65.82;101602.06;4915502;28;45642;-81
2023/02/21 08:10:36;;;;;;;;;68.25;56.00;;;;;8.44;65.98;101569.41;4914409;28;45567;-81
2023/02/21 08:13:01;;;;;;;;;64.25;51.50;;;;;8.52;65.87;101584.41;4917929;28;45228;-81
2023/02/21 08:15:28;;;;;;;;;68.00;53.25;;;;;8.66;65.77;101596.66;4905914;28;47366;-81
2023/02/21 08:17:53;;;;;;;;;67.50;55.00;;;;;8.57;65.78;101587.00;4908393;28;45524;-81
2023/02/21 08:20:19;;;;;;;;;74.75;55.25;;;;;8.58;66.25;101582.56;4911125;28;45363;-81
2023/02/21 08:22:44;;;;;;;;;69.75;57.00;;;;;8.67;65.87;101612.63;4908968;28;45550;-80
2023/02/21 08:25:11;;;;;;;;;66.25;53.75;;;;;8.66;65.92;101588.69;4921875;28;47053;-80
2023/02/21 08:27:41;;;;;;;;;71.75;56.00;;;;;8.74;66.19;101599.22;4917363;28;45463;-80
2023/02/21 08:30:09;;;;;;;;;70.00;54.50;;;;;8.68;66.07;101592.22;4916230;28;45573;-80
2023/02/21 08:32:35;;;;;;;;;71.25;57.25;;;;;8.61;66.38;101575.41;4915798;28;46030;-81
2023/02/21 08:35:02;;;;;;;;;66.00;53.75;;;;;8.74;66.03;101586.81;4929368;28;47019;-81
2023/02/21 08:37:31;;;;;;;;;77.25;56.50;;;;;8.74;66.35;101586.81;4917563;28;45331;-81
2023/02/21 08:39:58;;;;;;;;;67.25;54.00;;;;;8.78;66.77;101590.31;4914113;28;45305;-81
2023/02/21 08:42:24;;;;;;;;;71.00;55.75;;;;;8.88;66.46;101599.97;4918802;28;45551;-81
2023/02/21 08:44:49;;;;;;;;;73.25;54.00;;;;;8.78;66.53;101569.91;4917328;28;47147;-81
2023/02/21 08:47:16;;;;;;;;;65.50;50.75;;;;;8.87;66.92;101582.22;4919018;28;45378;-81
2023/02/21 08:49:46;;;;;;;;;73.25;53.50;;;;;8.90;66.88;101583.09;4917841;28;45343;-81
2023/02/21 08:52:12;;;;;;;;;65.25;52.25;;;;;8.98;66.75;101598.09;4909286;28;46558;-81
2023/02/21 08:54:38;;;;;;;;;74.00;57.25;;;;;8.95;66.40;101587.47;4912231;28;46284;-81
2023/02/21 08:57:04;;;;;;;;;64.25;53.00;;;;;8.88;66.74;101570.69;4914682;28;45509;-81
2023/02/21 08:59:32;;;;;;;;;67.00;53.00;;;;;8.98;67.25;101590.97;4919987;28;46049;-81
2023/02/21 09:02:00;;;;;;;;;67.50;53.75;;;;;8.98;67.03;101574.13;4919052;28;45437;-81
2023/02/21 09:04:26;;;;;;;;;63.00;51.00;;;;;9.06;67.11;101585.56;4909862;28;45446;-81
2023/02/21 09:06:53;;;;;;;;;71.50;54.00;;;;;9.01;66.87;101563.44;4910545;28;46002;-81
2023/02/21 09:09:19;;;;;;;;;61.50;50.50;;;;;9.03;66.68;101574.94;4915271;28;45393;-81
2023/02/21 09:11:47;;;;;;;;;68.50;54.00;;;;;9.10;66.88;101576.59;4914706;28;45449;-81
2023/02/21 09:14:13;;;;;;;;;63.75;51.00;;;;;9.24;66.99;101589.78;4915229;28;45309;-81
2023/02/21 09:16:38;;;;;;;;;58.75;49.25;;;;;9.28;67.19;101588.81;4918213;28;45485;-81
2023/02/21 09:19:05;;;;;;;;;57.00;46.25;;;;;9.37;67.03;101593.13;4920373;28;45278;-81
2023/02/21 09:21:31;;;;;;;;;54.00;43.75;;;;;9.36;67.30;101580.72;4914897;28;45263;-81
2023/02/21 09:23:58;;;;;;;;;61.00;47.25;;;;;9.33;67.43;101576.31;4910080;28;46340;-81
2023/02/21 09:26:24;;;;;;;;;58.50;46.25;;;;;9.47;67.76;101592.09;4917002;28;45365;-81
2023/02/21 09:28:51;;;;;;;;;47.75;40.25;;;;;9.34;67.48;101556.75;4915755;28;45404;-83
2023/02/21 09:31:19;;;;;;;;;51.75;42.00;;;;;9.36;67.32;101543.44;4920691;28;45287;-83
2023/02/21 09:33:47;;;;;;;;;50.50;43.75;;;;;9.51;67.45;101559.19;4921947;28;46203;-83
2023/02/21 09:36:12;;;;;;;;;50.50;40.75;;;;;9.63;67.93;101566.09;4918769;28;45826;-82
2023/02/21 09:38:41;;;;;;;;;47.00;41.00;;;;;9.74;67.58;101572.16;4919282;28;45481;-83
2023/02/21 09:41:11;;;;;;;;;52.50;41.00;;;;;9.83;67.67;101571.13;4919456;28;45439;-83
2023/02/21 09:43:39;;;;;;;;;44.75;37.50;;;;;9.57;67.96;101516.44;4920430;28;47326;-81
2023/02/21 09:46:16;;;;;;;;;47.25;38.75;;;;;9.93;67.36;101561.19;4909606;28;45622;-81
2023/02/21 09:48:42;;;;;;;;;47.75;41.75;;;;;9.97;67.47;101566.47;4911221;28;45490;-81
2023/02/21 09:51:11;;;;;;;;;42.25;35.25;;;;;9.93;67.69;101548.72;4925850;28;45409;-81
2023/02/21 09:53:41;;;;;;;;;46.25;39.75;;;;;10.21;67.76;101580.28;4920446;28;46260;-82
2023/02/21 09:56:33;;;;;;;;;43.00;38.75;;;;;10.19;67.64;101563.44;4922015;28;45339;-82
2023/02/21 09:58:58;;;;;;;;;45.50;37.50;;;;;10.35;67.12;101580.06;4913212;28;45758;-82
2023/02/21 10:01:57;;;;;;;;;49.50;39.50;;;;;10.33;67.28;101560.53;4910247;28;45513;-82
2023/02/21 10:04:29;;;;;;;;;44.75;36.75;;;;;10.50;67.69;101570.91;4917636;28;45504;-82
2023/02/21 10:07:17;;;;;;;;;48.00;41.00;;;;;10.57;67.12;101575.19;4915551;28;46003;-82
2023/02/21 10:09:52;;;;;;;;;45.25;38.25;;;;;10.50;67.15;101553.09;4920573;28;45437;-82
2023/02/21 10:12:34;;;;;;;;;53.25;42.00;;;;;10.70;67.32;101570.50;4912675;28;45616;-81
2023/02/21 10:15:15;;;;;;;;;45.50;37.50;;;;;10.77;66.63;101569.47;4916940;28;47801;-82
2023/02/21 10:17:43;;;;;;;;;46.75;38.50;;;;;10.85;67.06;101562.19;4913224;28;45710;-82
2023/02/21 10:20:47;;;;;;;;;48.50;39.50;;;;;10.91;66.36;101564.75;4920302;28;45496;-82
2023/02/21 10:23:28;;;;;;;;;49.75;40.25;;;;;10.91;66.27;101555.84;4892706;28;46300;-82
2023/02/21 10:26:01;;;;;;;;;39.50;36.00;;;;;10.90;66.26;101546.94;4921714;28;47541;-82
2023/02/21 10:28:39;;;;;;;;;41.75;36.25;;;;;10.94;66.22;101540.63;4913120;28;45408;-85
2023/02/21 10:31:20;;;;;;;;;43.50;37.25;;;;;10.98;66.22;101533.44;4918017;28;45543;-84
2023/02/21 10:33:45;;;;;;;;;45.00;40.00;;;;;11.13;66.00;101549.13;4919735;28;45723;-86
2023/02/21 10:36:17;;;;;;;;;39.25;36.00;;;;;11.29;66.31;101559.47;4920272;28;47223;-84
2023/02/21 10:38:52;;;;;;;;;42.25;37.50;;;;;11.34;66.03;101562.06;4908760;28;46009;-83
2023/02/21 10:41:18;;;;;;;;;49.75;38.75;;;;;11.39;65.61;101561.03;4917577;28;45914;-83
2023/02/21 10:43:50;;;;;;;;;46.00;38.00;;;;;11.32;65.85;101540.69;4918059;28;45596;-83
2023/02/21 10:46:21;;;;;;;;;44.50;38.00;;;;;11.53;65.76;101551.81;4918046;28;45834;-83
2023/02/21 10:48:51;;;;;;;;;38.75;35.25;;;;;11.60;65.81;101548.97;4908453;28;45714;-83
2023/02/21 10:51:29;;;;;;;;;40.25;36.00;;;;;11.57;65.66;101534.78;4914806;28;45495;-83
2023/02/21 10:54:21;;;;;;;;;41.25;34.75;;;;;11.71;65.00;101539.78;4916755;28;46393;-83
2023/02/21 10:56:48;;;;;;;;;36.50;33.25;;;;;11.71;65.14;101524.66;4914847;28;45638;-82
2023/02/21 10:59:25;;;;;;;;;36.00;32.75;;;;;11.66;65.09;101502.47;4911293;28;45727;-83
2023/02/21 11:01:52;;;;;;;;;37.25;36.00;;;;;11.75;64.57;101506.72;4910905;28;45526;-83
2023/02/21 11:04:20;;;;;;;;;40.25;35.75;;;;;11.98;64.74;101527.59;4915789;28;45479;-83
2023/02/21 11:06:55;;;;;;;;;37.75;35.50;;;;;12.00;64.25;101523.06;4912222;28;47382;-83
2023/02/21 11:09:32;;;;;;;;;38.50;33.50;;;;;11.90;64.63;101508.13;4915725;28;45815;-83
2023/02/21 11:12:16;;;;;;;;;42.00;35.25;;;;;12.13;64.54;101537.88;4904912;28;45624;-83
2023/02/21 11:14:45;;;;;;;;;43.75;35.25;;;;;12.21;64.13;101534.97;4921168;28;45422;-83
2023/02/21 11:17:21;;;;;;;;;33.25;33.00;;;;;12.12;64.19;101504.00;4921380;28;47629;-83
2023/02/21 11:19:56;;;;;;;;;37.50;35.50;;;;;12.13;63.74;101486.13;4911118;28;45483;-84
2023/02/21 11:22:33;;;;;;;;;41.25;36.00;;;;;12.30;63.96;101501.75;4913572;28;45429;-83
2023/02/21 11:25:22;;;;;;;;;34.25;31.25;;;;;12.40;63.50;101504.13;4911104;28;45665;-84
2023/02/21 11:28:09;;;;;;;;;38.50;34.00;;;;;12.51;63.54;101505.63;4923758;28;45767;-83
2023/02/21 11:30:37;;;;;;;;;43.25;36.75;;;;;12.48;63.67;101486.94;4930074;28;46158;-84
2023/02/21 11:33:06;;;;;;;;;45.25;36.00;;;;;12.54;63.24;101486.78;4913689;28;45446;-84
2023/02/21 11:35:38;;;;;;;;;35.25;33.75;;;;;12.56;63.62;101471.53;4925820;28;45642;-84
2023/02/21 11:38:28;;;;;;;;;37.00;34.50;;;;;12.73;63.15;101492.47;4915267;28;45465;-84
2023/02/21 11:40:53;;;;;;;;;31.00;28.50;;;;;12.70;62.84;101472.03;4905243;28;45759;-84
2023/02/21 11:43:30;;;;;;;;;34.75;33.25;;;;;12.70;62.84;101453.28;4916802;28;45420;-84
2023/02/21 11:46:04;;;;;;;;;32.75;32.50;;;;;12.86;62.48;101468.88;4922144;28;45324;-83
2023/02/21 11:48:41;;;;;;;;;31.25;29.25;;;;;12.81;62.38;101457.44;4922217;28;46319;-84
2023/02/21 11:51:24;;;;;;;;;38.25;34.75;;;;;12.95;62.31;101468.63;4917932;28;45296;-84
2023/02/21 11:53:49;;;;;;;;;42.00;35.25;;;;;12.92;61.83;101452.63;4915728;28;45351;-84
2023/02/21 11:56:35;;;;;;;;;42.25;35.75;;;;;13.04;62.04;101449.56;4922121;28;45479;-84
2023/02/21 11:59:27;;;;;;;;;39.00;35.25;;;;;13.09;62.03;101446.75;4908415;28;45568;-84
2023/02/21 12:01:53;;;;;;;;;37.50;33.75;;;;;13.13;61.64;101438.56;4913741;28;45790;-83
2023/02/21 12:04:40;;;;;;;;;39.75;34.25;;;;;13.18;61.44;101437.53;4905882;28;45436;-83
2023/02/21 12:07:17;;;;;;;;;44.75;38.00;;;;;13.23;61.41;101433.78;4910253;28;45558;-85
2023/02/21 12:09:54;;;;;;;;;42.25;35.00;;;;;13.27;60.89;101431.88;4909645;28;45689;-83
2023/02/21 12:12:47;;;;;;;;;39.00;34.50;;;;;13.31;60.87;101425.47;4907293;28;45644;-85
2023/02/21 12:15:36;;;;;;;;;;;;;;;;;;;;;
2023/02/21 12:21:34;;;;;;;;;37.75;32.00;;;;;13.53;60.65;101402.41;4860223;29;45507;-85
2023/02/21 12:24:13;;;;;;;;;;;;;;;;;;;;;
2023/02/21 12:27:10;;;;;;;;;31.00;29.50;;;;;13.65;60.15;101403.81;4908018;28;67998;-85
2023/02/21 12:30:08;;;;;;;;;32.00;30.00;;;;;13.51;60.18;101358.69;4912225;28;45603;-86
2023/02/21 12:44:11;;;;;;;;;;;;;;;;;;;;;
2023/02/21 13:03:53;;;;;;;;;37.00;32.75;;;;;14.37;58.27;101318.88;4839167;23;45957;-66
2023/02/21 13:06:27;;;;;;;;;32.00;31.25;;;;;14.39;58.10;101301.75;4899828;28;45661;-66
2023/02/21 13:09:19;;;;;;;;;30.50;29.00;;;;;14.34;58.29;101293.00;4911365;28;45820;-66
2023/02/21 13:11:53;;;;;;;;;29.25;28.50;;;;;14.46;58.05;101303.25;4911229;28;45775;-65
2023/02/21 13:14:55;;;;;;;;;30.75;27.50;;;;;14.53;58.28;101303.00;4908879;28;45661;-66
2023/02/21 13:17:21;;;;;;;;;33.00;31.00;;;;;14.57;58.15;101299.28;4881253;28;45483;-66
2023/02/21 13:19:52;;;;;;;;;22.75;22.00;;;;;14.63;57.96;101297.25;4919161;28;45514;-66
2023/02/21 13:26:04;;;;;;;;;26.75;25.25;;;;;14.76;57.55;101278.78;4916634;28;45896;-65
2023/02/21 13:28:41;;;;;;;;;22.50;20.25;;;;;14.83;57.41;101276.72;4918382;28;45711;-65
2023/02/21 13:31:18;;;;;;;;;27.75;23.50;;;;;14.88;57.30;101274.72;4906873;28;45574;-66
2023/02/21 13:33:49;;;;;;;;;30.75;26.25;;;;;14.88;57.38;101263.09;4906380;28;46955;-65
2023/02/21 13:36:20;;;;;;;;;32.75;29.50;;;;;14.94;57.05;101257.47;4903004;28;45814;-66
2023/02/21 13:39:15;;;;;;;;;28.00;24.75;;;;;14.94;56.93;101250.28;4914405;28;45436;-66
2023/02/21 13:41:45;;;;;;;;;27.00;23.75;;;;;15.01;56.71;101257.13;4904559;28;45720;-66
2023/02/21 13:44:27;;;;;;;;;28.75;25.75;;;;;15.06;56.25;101251.56;4895128;29;48075;-66
2023/02/21 13:46:53;;;;;;;;;26.00;25.00;;;;;15.09;56.36;101248.75;4902266;28;45817;-66
2023/02/21 13:49:52;;;;;;;;;28.00;25.00;;;;;15.14;56.32;101244.03;4900615;28;45600;-65
2023/02/21 13:52:27;;;;;;;;;22.50;19.25;;;;;15.19;55.98;101238.47;4906847;28;45456;-65
2023/02/21 13:55:14;;;;;;;;;22.25;21.25;;;;;15.24;55.66;101238.28;4910171;28;46163;-65
2023/02/21 13:58:10;;;;;;;;;17.75;15.50;;;;;15.22;55.43;101207.88;4914918;28;45336;-65
2023/02/21 14:00:35;;;;;;;;;26.75;25.75;;;;;15.32;55.61;101210.09;4909341;28;45388;-65
2023/02/21 14:03:08;;;;;;;;;22.00;20.25;;;;;15.36;55.26;101210.81;4898322;28;45674;-65
2023/02/21 14:05:51;;;;;;;;;19.25;19.25;;;;;15.40;55.10;101208.88;4918946;28;46125;-65
2023/02/21 14:08:19;;;;;;;;;20.50;19.75;;;;;15.43;54.76;101204.22;4918593;28;45723;-65
2023/02/21 14:10:48;;;;;;;;;22.25;20.25;;;;;15.41;54.62;101194.50;4907176;28;45403;-65
2023/02/21 14:13:35;;;;;;;;;23.00;20.25;;;;;15.51;54.23;101196.69;4912132;28;45457;-65
2023/02/21 14:16:06;;;;;;;;;20.75;19.75;;;;;15.55;54.29;101200.09;4915314;28;45600;-65
2023/02/21 14:18:39;;;;;;;;;22.25;21.00;;;;;15.54;54.00;101190.28;4916405;28;45633;-65
2023/02/21 14:21:35;;;;;;;;;20.00;19.00;;;;;15.49;53.93;101163.59;4920849;28;45604;-65
2023/02/21 14:24:09;;;;;;;;;23.25;21.00;;;;;15.67;53.96;101186.09;4907035;28;45800;-65
2023/02/21 14:26:48;;;;;;;;;21.50;20.50;;;;;15.65;53.80;101177.22;4917785;28;45555;-65
2023/02/21 14:29:28;;;;;;;;;20.50;18.50;;;;;15.72;53.32;101180.50;4892794;28;45726;-65